Tiempo atmosférico en la estación meteorológica de Cuéllar, Segovia (795 m.)



Fecha
DESCASC
Temp. máxima en grados centígrados (hora)
DESCASC
Temp. mínima en grados centígrados (hora)
DESCASC
Temp. media en grados centígrados
DESCASC
Racha de viento máxima en m/sg (hora)
DESCASC
Velocidad máxima media en intervalos de 10 minutos(hora)
DESCASC
Precipitaciones diarias en mm
DESCASC
Precipitaciones de 00:00 a 06:00 en mm
DESCASC
Precipitaciones de 06:00 a 12:00 en mm
DESCASC
Precipitaciones de 12:00 a 18:00 en mm
DESCASC
Precipitaciones de 18:00 a 24:00 en mm
DESCASC
16-06-2019 30.4 (17:20) 1.2 (07:00) 15.8 10.56 (18:10) 5.28 (16:10) 0 0 0 0 0
15-06-2019 24.1 (18:50) 3.4 (07:00) 13.8 9.72 (18:20) 4.17 (00:40) 0 0 0 0 0
14-06-2019 24.3 (15:40) 2.6 (07:10) 13.4 11.67 (17:30) 6.67 (17:30) 0 0 0 0 0
13-06-2019 26.6 (18:40) -1 (-00:0) 12.8 13.61 (14:40) 7.22 (14:40) 0 0 0 0 0
12-06-2019 22.6 (17:50) -0.7 (-00:0) 11 9.17 (16:50) 5 (16:50) 0 0 0 0 0
11-06-2019 20.5 (18:10) 8.5 (00:00) 14.5 11.67 (02:20) 8.33 (02:20) 0 0 0 0 0
10-06-2019 23.5 (18:00) 4.4 (00:00) 14 12.22 (18:20) 5.83 (00:10) 0 0 0 0 0
09-06-2019 24.4 (17:10) 3.8 (00:00) 14.1 10.28 (23:40) 7.22 (23:40) 0 0 0 0 0
08-06-2019 25.4 (17:30) -1.8 (-00:0) 11.8 15 (16:20) 5.83 (16:20) 0 0 0 0 0
07-06-2019 18.6 (18:40) 4.1 (00:00) 11.4 10.83 (00:20) 6.39 (00:10) 2.6 2.6 0 0 0
06-06-2019 22.8 (17:40) 4.9 (00:00) 13.8 16.11 (23:59) 9.72 (18:20) 0.4 0 0 0 0.4
05-06-2019 20.1 (18:10) 8.6 (00:00) 14.4 10.56 (13:00) 6.67 (18:40) 0.2 0.2 0 0 0
04-06-2019 25.5 (16:00) 4.8 (00:00) 15.2 13.06 (19:10) 7.78 (19:10) 0 0 0 0 0
03-06-2019 31.1 (17:50) 8.5 (00:00) 19.8 13.89 (18:30) 8.06 (18:30) 0 0 0 0 0
02-06-2019 32.5 (16:10) 6.2 (00:00) 19.3 10 (15:20) 5.83 (18:40) 0 0 0 0 0
01-06-2019 34.2 (18:20) 4.4 (00:00) 19.3 6.67 (16:50) 3.33 (18:50) 0 0 0 0 0
31-05-2019 33 (18:30) 4.4 (00:00) 18.7 6.67 (02:30) 5 (02:30) 0 0 0 0 0
30-05-2019 29.7 (17:40) 2.8 (00:00) 16.3 10 (20:30) 6.67 (20:30) 0 0 0 0 0
29-05-2019 22.2 (17:00) 2.8 (00:00) 12.5 10.83 (18:00) 7.22 (18:10) 0 0 0 0 0
28-05-2019 21 (16:40) 5.9 (00:00) 13.5 12.5 (16:00) 7.78 (01:20) 0 0 0 0 0
27-05-2019 25.4 (16:50) 4.5 (00:00) 14.9 10.28 (22:20) 7.22 (22:20) 0 0 0 0 0
26-05-2019 24.1 (19:10) 4.3 (00:00) 14.2 11.11 (15:40) 6.39 (17:00) 0 0 0 0 0
25-05-2019 20.6 (16:50) 4.2 (00:00) 12.4 11.94 (17:30) 7.5 (19:00) 0 0 0 0 0
24-05-2019 19.4 (16:10) 9 (00:00) 14.2 12.78 (17:50) 8.61 (09:50) 0 0 0 0 0
23-05-2019 27 (17:10) 5.6 (00:00) 16.3 10 (16:50) 5.28 (16:50) 0 0 0 0 0
22-05-2019 26.8 (17:50) 2.5 (00:00) 14.6 7.78 (14:20) 4.17 (14:20) 0 0 0 0 0
21-05-2019 24.4 (17:50) 2.2 (04:10) 13.3 9.72 (18:10) 5 (23:00) 0 0 0 0 0

Gráficas

Temp. máximas Temp. mínimas Temp. medias Precipitaciones Rachas de viento máximas Velocidades máximas media en intervalos de 10 minutos

Datos horarios

Fecha y hora oficial Temperatura (ºC) Velocidad del viento (km/h) Dirección del viento Racha (km/h) Dirección de racha Precipitación (mm) Presión (hPa) Tendencia (hPa) Humedad (%)
2019-06-19 23:00:00 17.4 4 Oeste 13 Oeste 0 -- -- 63
2019-06-19 22:00:00 19.9 9 Oeste 24 Oeste 0 -- -- 53
2019-06-19 21:00:00 22.3 15 Oeste 25 Oeste 0 -- -- 47
2019-06-19 20:00:00 23 17 Oeste 31 Oeste 0 -- -- 43
2019-06-19 19:00:00 24.2 14 Oeste 34 Oeste 0 -- -- 40
2019-06-19 18:00:00 25.2 19 Oeste 33 Oeste 0 -- -- 38
2019-06-19 17:00:00 25.4 10 Sudoeste 28 Oeste 0 -- -- 37
2019-06-19 16:00:00 24.1 13 Sudoeste 33 Oeste 0 -- -- 40
2019-06-19 15:00:00 23.2 8 Sudoeste 35 Oeste 0 -- -- 43
2019-06-19 14:00:00 22.5 11 Oeste 28 Sur 0 -- -- 45
2019-06-19 13:00:00 21.2 10 Sudoeste 22 Oeste 0 -- -- 49
2019-06-19 12:00:00 20.1 10 Sur 19 Oeste 0 -- -- 55
2019-06-19 11:00:00 18.5 12 Oeste 23 Sudoeste 0 -- -- 62
2019-06-19 10:00:00 18.6 10 Sudoeste 17 Sudoeste 0 -- -- 64
2019-06-19 09:00:00 17.9 5 Sur 11 Sur 0 -- -- 65
2019-06-19 08:00:00 14.7 3 Este 5 Este 0 -- -- 76
2019-06-19 07:00:00 12 3 Nordeste 5 Este 0 -- -- 87
2019-06-19 06:00:00 12 3 Oeste 8 Este 0 -- -- 86
2019-06-19 05:00:00 9.4 0 Calma 10 Este 0 -- -- 92
2019-06-19 04:00:00 9.5 4 Este 8 Este 0 -- -- 86
2019-06-19 03:00:00 11.8 4 Este 10 Este 0 -- -- 83
2019-06-19 02:00:00 16.2 4 Sudoeste 14 Sudoeste 0 -- -- 68
2019-06-19 01:00:00 17.5 6 Sudoeste 14 Sudoeste 0 -- -- 63
2019-06-19 00:00:00 18.5 6 Sudoeste 19 Sudoeste 0 -- -- 58
2019-06-18 23:00:00 20 10 Oeste 32 Sudoeste 0 -- -- 53
2019-06-18 22:00:00 21.6 14 Oeste 31 Sudoeste 0 -- -- 46
2019-06-18 21:00:00 23 17 Oeste 40 Oeste 0 -- -- 43
2019-06-18 20:00:00 24.5 24 Oeste 47 Oeste 0 -- -- 38
2019-06-18 19:00:00 25.7 27 Oeste 49 Noroeste 0 -- -- 35
2019-06-18 18:00:00 27.5 22 Oeste 43 Sudoeste 0 -- -- 29
2019-06-18 17:00:00 28.5 21 Sudoeste 48 Oeste 0 -- -- 20
2019-06-18 16:00:00 28.3 24 Sudoeste 48 Sur 0 -- -- 15
2019-06-18 15:00:00 27.7 28 Sur 48 Sur 0 -- -- 15
2019-06-18 14:00:00 27 33 Sur 55 Sur 0 -- -- 17
2019-06-18 13:00:00 26.6 28 Sur 44 Sur 0 -- -- 19
2019-06-18 12:00:00 26 19 Sur 35 Sudoeste 0 -- -- 22
2019-06-18 11:00:00 24.6 14 Sur 24 Sudoeste 0 -- -- 29
2019-06-18 10:00:00 22.4 7 Sudoeste 18 Oeste 0 -- -- 35
2019-06-18 09:00:00 20.6 4 Sudoeste 12 Oeste 0 -- -- 35
2019-06-18 08:00:00 13.1 0 Calma 6 Sur 0 -- -- 60
2019-06-18 07:00:00 7.3 0 Calma 5 Nordeste 0 -- -- 75
2019-06-18 06:00:00 8 3 Este 9 Sudoeste 0 -- -- 71
2019-06-18 05:00:00 12 3 Este 8 Nordeste 0 -- -- 58
2019-06-18 04:00:00 14.9 2 Este 9 Este 0 -- -- 54
2019-06-18 03:00:00 15.9 5 Este 17 Este 0 -- -- 48
2019-06-18 02:00:00 16.5 5 Este 14 Este 0 -- -- 45
2019-06-18 01:00:00 16.9 4 Este 11 Nordeste 0 -- -- 42
2019-06-18 00:00:00 17.2 0 Calma 5 Norte 0 -- -- 42
2019-06-17 23:00:00 20.1 0 Calma 13 Oeste 0 -- -- 34
2019-06-17 22:00:00 23.6 8 Oeste 28 Oeste 0 -- -- 26
2019-06-17 21:00:00 25.8 14 Oeste 45 Oeste 0 -- -- 22
2019-06-17 20:00:00 28.1 9 Sur 27 Sur 0 -- -- 19
2019-06-17 19:00:00 30.6 14 Sudoeste 32 Este 0 -- -- 18
2019-06-17 18:00:00 29 18 Sudeste 33 Sur 0 -- -- 22
2019-06-17 17:00:00 28.6 17 Sur 38 Sur 0 -- -- 22
2019-06-17 16:00:00 29.5 19 Sur 42 Sur 0 -- -- 20
2019-06-17 15:00:00 29.4 19 Sudeste 45 Sudeste 0 -- -- 20
2019-06-17 14:00:00 27.9 14 Sudoeste 33 Sur 0 -- -- 23
2019-06-17 13:00:00 27 10 Sudoeste 26 Oeste 0 -- -- 26
2019-06-17 12:00:00 25.6 8 Oeste 16 Oeste 0 -- -- 31
2019-06-17 11:00:00 23.7 8 Sur 13 Sur 0 -- -- 39
2019-06-17 10:00:00 21 4 Oeste 8 Oeste 0 -- -- 46
2019-06-17 09:00:00 17.1 0 Calma 5 Este 0 -- -- 44
2019-06-17 08:00:00 9.1 0 Calma 5 Sudeste 0 -- -- 66
2019-06-17 07:00:00 2.8 2 Este 5 Este 0 -- -- 79
2019-06-17 06:00:00 3.4 4 Este 6 Sudeste 0 -- -- 77
2019-06-17 05:00:00 4 3 Sudeste 5 Este 0 -- -- 76
2019-06-17 04:00:00 5.3 0 Calma 6 Nordeste 0 -- -- 72
2019-06-17 03:00:00 5.6 5 Sudeste 6 Sudeste 0 -- -- 71
2019-06-17 02:00:00 7.2 2 Sudeste 5 Este 0 -- -- 68
2019-06-17 01:00:00 8.8 2 Nordeste 4 Este 0 -- -- 62
2019-06-17 00:00:00 10.4 2 Sur 8 Nordeste 0 -- -- 58
2019-06-16 23:00:00 14.1 2 Este 9 Oeste 0 -- -- 46
2019-06-16 22:00:00 21.6 5 Oeste 19 Sudoeste 0 -- -- 27
2019-06-16 21:00:00 26.9 9 Oeste 19 Oeste 0 -- -- 21
2019-06-16 20:00:00 27.5 13 Noroeste 22 Noroeste 0 -- -- 21
2019-06-16 19:00:00 29.1 6 Norte 38 Oeste 0 -- -- 21
2019-06-16 18:00:00 30 10 Sur 25 Sur 0 -- -- 20
2019-06-16 17:00:00 29.2 10 Sudoeste 33 Sur 0 -- -- 21
2019-06-16 16:00:00 28.1 13 Sur 32 Sur 0 -- -- 21
2019-06-16 15:00:00 27.9 17 Sur 34 Sur 0 -- -- 21
2019-06-16 14:00:00 27.4 9 Oeste 33 Oeste 0 -- -- 22
2019-06-16 13:00:00 25.8 9 Sudoeste 26 Sudoeste 0 -- -- 24
2019-06-16 12:00:00 24.7 14 Sur 23 Sur 0 -- -- 27
2019-06-16 11:00:00 21.9 5 Sudeste 9 Este 0 -- -- 36
2019-06-16 10:00:00 18.9 3 Este 10 Este 0 -- -- 44
2019-06-16 09:00:00 13.8 3 Sudeste 6 Sudeste 0 -- -- 58
2019-06-16 08:00:00 6.8 3 Sudeste 4 Sudeste 0 -- -- 75
2019-06-16 07:00:00 1.2 2 Sudeste 12 Este 0 -- -- 86
2019-06-16 06:00:00 3.2 8 Este 10 Este 0 -- -- 85
2019-06-16 05:00:00 3.3 4 Nordeste 9 Nordeste 0 -- -- 83
2019-06-16 04:00:00 3.3 6 Este 8 Nordeste 0 -- -- 81
2019-06-16 03:00:00 3.9 5 Este 7 Este 0 -- -- 76
2019-06-16 02:00:00 5.2 4 Este 8 Nordeste 0 -- -- 77
2019-06-16 01:00:00 6.1 4 Sudeste 8 Este 0 -- -- 72
2019-06-16 00:00:00 8.1 0 Calma 4 Este 0 -- -- 66
2019-06-15 23:00:00 11.4 0 Calma 8 Norte 0 -- -- 56
2019-06-15 22:00:00 15.7 3 Noroeste 9 Oeste 0 -- -- 40
2019-06-15 21:00:00 22.4 6 Oeste 13 Oeste 0 -- -- 28
2019-06-15 20:00:00 23.3 8 Oeste 18 Oeste 0 -- -- 26
2019-06-15 19:00:00 23.5 12 Noroeste 35 Oeste 0 -- -- 28
2019-06-15 18:00:00 23.7 7 Noroeste 23 Noroeste 0 -- -- 27
2019-06-15 17:00:00 22.7 8 Oeste 20 Noroeste 0 -- -- 30
2019-06-15 16:00:00 22.1 5 Nordeste 23 Oeste 0 -- -- 29
2019-06-15 15:00:00 20.7 4 Este 27 Oeste 0 -- -- 34
2019-06-15 14:00:00 19.8 8 Noroeste 21 Sur 0 -- -- 37
2019-06-15 13:00:00 19.1 4 Norte 28 Sur 0 -- -- 39
2019-06-15 12:00:00 17.2 7 Sur 18 Oeste 0 -- -- 44
2019-06-15 11:00:00 16 8 Sudoeste 20 Sudoeste 0 -- -- 52
2019-06-15 10:00:00 13.5 7 Oeste 19 Sudoeste 0 -- -- 62
2019-06-15 09:00:00 11.7 6 Sudoeste 15 Sudoeste 0 -- -- 67
2019-06-15 08:00:00 8.9 0 Calma 4 Noroeste 0 -- -- 75
2019-06-15 07:00:00 3.4 0 Calma 4 Noroeste 0 -- -- 87
2019-06-15 06:00:00 7.3 5 Sudoeste 11 Sudoeste 0 -- -- 77
2019-06-15 05:00:00 9.1 6 Sudoeste 14 Oeste 0 -- -- 70
2019-06-15 04:00:00 10.5 7 Oeste 18 Oeste -- -- -- 65
2019-06-15 03:00:00 11.4 7 Oeste 14 Sudoeste 0 -- -- 62
2019-06-15 02:00:00 11.6 4 Oeste 20 Oeste 0 -- -- 60
2019-06-15 01:00:00 12.4 9 Oeste 26 Oeste 0 -- -- 53
2019-06-15 00:00:00 14.1 9 Oeste 21 Oeste 0 -- -- 44
2019-06-14 23:00:00 15.3 10 Oeste 19 Oeste 0 -- -- 41
2019-06-14 22:00:00 16.7 13 Oeste 26 Oeste 0 -- -- 38
2019-06-14 21:00:00 18.1 15 Oeste 36 Oeste 0 -- -- 35
2019-06-14 20:00:00 20.4 19 Oeste 35 Oeste 0 -- -- 31
2019-06-14 19:00:00 22.4 18 Oeste 39 Oeste 0 -- -- 27
2019-06-14 18:00:00 23.1 19 Oeste 42 Oeste 0 -- -- 25
2019-06-14 17:00:00 23.6 18 Oeste 41 Sudoeste 0 -- -- 23
2019-06-14 16:00:00 23.7 20 Oeste 40 Oeste 0 -- -- 27
2019-06-14 15:00:00 24 15 Oeste 32 Oeste 0 -- -- 25
2019-06-14 14:00:00 22.9 17 Sudoeste 36 Sur 0 -- -- 23
2019-06-14 13:00:00 21.4 14 Sudoeste 31 Sudoeste 0 -- -- 30
2019-06-14 12:00:00 19.9 10 Sudoeste 28 Oeste 0 -- -- 34
2019-06-14 11:00:00 18 13 Sudoeste 23 Sudoeste 0 -- -- 39
2019-06-14 10:00:00 15.2 8 Sudoeste 17 Sudoeste 0 -- -- 47
2019-06-14 09:00:00 12 7 Sudoeste 14 Sudoeste 0 -- -- 55
2019-06-14 08:00:00 6.3 6 Sudeste 9 Sudeste 0 -- -- 84
2019-06-14 07:00:00 3.1 0 Calma 8 Este 0 -- -- 91
2019-06-14 06:00:00 3.2 6 Este 9 Este 0 -- -- 90
2019-06-14 05:00:00 8.1 4 Este 12 Este 0 -- -- 89
2019-06-14 04:00:00 7.1 3 Este 10 Nordeste 0 -- -- 89
2019-06-14 03:00:00 8.2 8 Este 13 Nordeste 0 -- -- 67
2019-06-14 02:00:00 9.8 8 Este 10 Este 0 -- -- 55
2019-06-14 01:00:00 11 5 Este 10 Este 0 -- -- 52
2019-06-14 00:00:00 11.7 0 Calma 6 Oeste 0 -- -- 52
2019-06-13 23:00:00 15.8 2 Oeste 12 Oeste 0 -- -- 45
2019-06-13 22:00:00 19.9 9 Oeste 23 Oeste 0 -- -- 29
2019-06-13 21:00:00 23.8 15 Oeste 27 Oeste 0 -- -- 16
2019-06-13 20:00:00 24.8 18 Oeste 37 Oeste 0 -- -- 16
2019-06-13 19:00:00 25.9 14 Oeste 35 Oeste 0 -- -- 20
2019-06-13 18:00:00 26.4 15 Noroeste 39 Sudoeste 0 -- -- 23
2019-06-13 17:00:00 25.5 16 Sudoeste 47 Sur 0 -- -- 23
2019-06-13 16:00:00 25.2 22 Sur 47 Sudoeste 0 -- -- 23
2019-06-13 15:00:00 24 25 Sur 49 Sudoeste 0 -- -- 25
2019-06-13 14:00:00 23.5 22 Sudoeste 41 Sur 0 -- -- 26
2019-06-13 13:00:00 22.4 11 Sur 28 Sur 0 -- -- 29
2019-06-13 12:00:00 20.2 10 Sudoeste 22 Sur 0 -- -- 36
2019-06-13 11:00:00 19.6 4 Sudeste 13 Oeste 0 -- -- 35
2019-06-13 10:00:00 15.8 2 Norte 5 Sudeste 0 -- -- 41
2019-06-13 09:00:00 10.3 4 Sudeste 8 Sudeste 0 -- -- 50
2019-06-13 08:00:00 6.4 0 Calma 7 Este 0 -- -- 64
2019-06-13 07:00:00 -1 4 Este 11 Sudeste 0 -- -- 87
2019-06-13 06:00:00 2.3 3 Oeste 8 Oeste 0 -- -- 79
2019-06-13 05:00:00 1.8 5 Sudeste 12 Este 0 -- -- 76
2019-06-13 04:00:00 1.5 8 Sudeste 12 Este 0 -- -- 74
2019-06-13 03:00:00 3.1 4 Este 8 Este 0 -- -- 68
2019-06-13 02:00:00 7.5 5 Este 13 Este 0 -- -- 52
2019-06-13 01:00:00 9.7 9 Este 13 Este 0 -- -- 45
2019-06-13 00:00:00 11.3 8 Nordeste 17 Norte 0 -- -- 41
2019-06-12 23:00:00 14.2 13 Norte 16 Norte 0 -- -- 34
2019-06-12 22:00:00 15.8 13 Norte 20 Noroeste 0 -- -- 33
2019-06-12 21:00:00 20.4 9 Noroeste 18 Oeste 0 -- -- 24
2019-06-12 20:00:00 21.6 12 Oeste 23 Oeste 0 -- -- 23
2019-06-12 19:00:00 22.4 10 Oeste 27 Oeste 0 -- -- 23
2019-06-12 18:00:00 22 12 Noroeste 27 Sudoeste 0 -- -- 23
2019-06-12 17:00:00 21.4 9 Sur 33 Oeste 0 -- -- 26
2019-06-12 16:00:00 20.6 10 Sur 30 Sur 0 -- -- 28
2019-06-12 15:00:00 19.7 10 Sudoeste 23 Sur 0 -- -- 29
2019-06-12 14:00:00 18.8 12 Sudoeste 24 Noroeste 0 -- -- 32
2019-06-12 13:00:00 16.9 10 Este 19 Este 0 -- -- 38
2019-06-12 12:00:00 16.1 6 Norte 12 Norte 0 -- -- 38
2019-06-12 11:00:00 14.1 4 Nordeste 8 Nordeste 0 -- -- 42
2019-06-12 10:00:00 12.2 3 Este 7 Sudeste 0 -- -- 52
2019-06-12 09:00:00 10.6 0 Calma 5 Este 0 -- -- 60
2019-06-12 08:00:00 3.5 3 Sudeste 5 Sudeste 0 -- -- 85
2019-06-12 07:00:00 -0.6 0 Calma 5 Este 0 -- -- 93
2019-06-12 06:00:00 0.8 3 Sudeste 6 Este 0 -- -- 90
2019-06-12 05:00:00 3.5 2 Este 6 Sur 0 -- -- 85
2019-06-12 04:00:00 3.2 0 Calma 8 Noroeste 0 -- -- 87
2019-06-12 03:00:00 4.4 0 Calma 7 Este 0 -- -- 83
2019-06-12 02:00:00 4.8 3 Este 10 Este 0 -- -- 77
2019-06-12 01:00:00 6.9 3 Este 19 Norte 0 -- -- 72
2019-06-12 00:00:00 9 16 Norte 25 Norte 0 -- -- 63
2019-06-11 23:00:00 10.2 13 Norte 23 Noroeste 0 -- -- 58
2019-06-11 22:00:00 11 10 Norte 17 Norte 0 -- -- 53
2019-06-11 21:00:00 15.1 10 Norte 22 Nordeste 0 -- -- 39
2019-06-11 20:00:00 19 10 Nordeste 24 Norte 0 -- -- 31
2019-06-11 19:00:00 17.3 13 Norte 25 Nordeste 0 -- -- 32
2019-06-11 18:00:00 19.5 9 Noroeste 25 Noroeste 0 -- -- 29
2019-06-11 17:00:00 19 15 Norte 33 Norte 0 -- -- 32
2019-06-11 16:00:00 18.5 13 Norte 29 Norte 0 -- -- 29
2019-06-11 15:00:00 17.5 13 Norte 28 Norte 0 -- -- 35
2019-06-11 14:00:00 15.2 13 Norte 30 Nordeste 0 -- -- 40
2019-06-11 13:00:00 15.6 10 Norte 33 Noroeste 0 -- -- 43
2019-06-11 12:00:00 13.9 9 Norte 25 Norte 0 -- -- 49
2019-06-11 11:00:00 12 12 Norte 22 Norte 0 -- -- 57
2019-06-11 10:00:00 10.9 13 Norte 21 Norte 0 -- -- 65
2019-06-11 09:00:00 10.4 13 Norte 23 Norte 0 -- -- 70
2019-06-11 08:00:00 9 9 Norte 17 Norte 0 -- -- 75
2019-06-11 07:00:00 8.6 10 Norte 15 Norte 0 -- -- 79
2019-06-11 06:00:00 8.7 9 Norte 22 Norte 0 -- -- 78
2019-06-11 05:00:00 9 12 Norte 20 Norte 0 -- -- 74
2019-06-11 04:00:00 9.3 3 Norte 27 Norte 0 -- -- 75
2019-06-11 03:00:00 9.5 20 Norte 42 Norte 0 -- -- 73
2019-06-11 02:00:00 10.5 27 Norte 39 Norte 0 -- -- 72
2019-06-11 01:00:00 12.2 22 Norte 32 Norte 0 -- -- 65
2019-06-11 00:00:00 14.6 10 Nordeste 23 Nordeste 0 -- -- 48
2019-06-10 23:00:00 15.2 2 Nordeste 9 Nordeste 0 -- -- 49
2019-06-10 22:00:00 16 0 Calma 16 Oeste 0 -- -- 42
2019-06-10 21:00:00 20.3 9 Oeste 21 Oeste 0 -- -- 30
2019-06-10 20:00:00 21.8 10 Oeste 24 Sudoeste 0 -- -- 27
2019-06-10 19:00:00 22 13 Oeste 44 Noroeste 0 -- -- 27
2019-06-10 18:00:00 23.5 7 Noroeste 22 Sudoeste 0 -- -- 26
2019-06-10 17:00:00 22.2 9 Oeste 21 Noroeste 0 -- -- 30
2019-06-10 16:00:00 20.4 12 Oeste 26 Noroeste 0 -- -- 33
2019-06-10 15:00:00 19.8 11 Noroeste 24 Oeste 0 -- -- 36
2019-06-10 14:00:00 19.6 5 Norte 21 Noroeste 0 -- -- 37
2019-06-10 13:00:00 18.8 6 Oeste 22 Oeste 0 -- -- 41
2019-06-10 12:00:00 17.4 5 Oeste 22 Oeste 0 -- -- 47
2019-06-10 11:00:00 15.9 4 Este 13 Oeste 0 -- -- 59
2019-06-10 10:00:00 13.4 3 Sur 12 Noroeste 0 -- -- 70
2019-06-10 09:00:00 10 4 Norte 9 Nordeste 0 -- -- 85
2019-06-10 08:00:00 7.1 0 Calma 5 Este 0 -- -- 97
2019-06-10 07:00:00 4.7 2 Sudeste 6 Sur 0 -- -- 96
2019-06-10 06:00:00 5.1 2 Sur 9 Nordeste 0 -- -- 97
2019-06-10 05:00:00 5 4 Nordeste 6 Norte 0 -- -- 97
2019-06-10 04:00:00 4.6 3 Este 5 Noroeste 0 -- -- 92
2019-06-10 03:00:00 6.3 3 Nordeste 7 Este 0 -- -- 90
2019-06-10 02:00:00 8.8 4 Nordeste 20 Norte 0 -- -- 85
2019-06-10 01:00:00 10.6 14 Norte 30 Norte 0 -- -- 81
2019-06-10 00:00:00 12 23 Norte 37 Norte 0 -- -- 77
2019-06-09 23:00:00 13.5 20 Norte 31 Norte 0 -- -- 73
2019-06-09 22:00:00 17.7 11 Oeste 31 Oeste 0 -- -- 39
2019-06-09 21:00:00 20 20 Oeste 32 Oeste 0 -- -- 34
2019-06-09 20:00:00 21.4 14 Oeste 31 Oeste 0 -- -- 30
2019-06-09 19:00:00 23.8 15 Oeste 32 Oeste 0 -- -- 27
2019-06-09 18:00:00 23.7 19 Oeste 34 Oeste 0 -- -- 29
2019-06-09 17:00:00 23.4 12 Oeste 29 Sudoeste 0 -- -- 30
2019-06-09 16:00:00 22.4 12 Oeste 31 Sudoeste 0 -- -- 31
2019-06-09 15:00:00 23.6 10 Oeste 26 Oeste 0 -- -- 32
2019-06-09 14:00:00 21.8 11 Sudoeste 27 Sudoeste 0 -- -- 33
2019-06-09 13:00:00 20.9 11 Sudoeste 26 Sudoeste 0 -- -- 40
2019-06-09 12:00:00 19.6 8 Oeste 21 Sudoeste 0 -- -- 50
2019-06-09 11:00:00 17.8 8 Oeste 18 Oeste 0 -- -- 57
2019-06-09 10:00:00 15.6 8 Sudoeste 18 Sudoeste 0 -- -- 61
2019-06-09 09:00:00 13.7 8 Sudoeste 17 Oeste 0 -- -- 64
2019-06-09 08:00:00 9.4 0 Calma 4 Oeste 0 -- -- 91
2019-06-09 07:00:00 4.1 0 Calma 2 Este 0 -- -- 97
2019-06-09 06:00:00 5.6 0 Calma 8 Sudeste 0 -- -- 95
2019-06-09 05:00:00 7.8 2 Nordeste 6 Nordeste 0 -- -- 91
2019-06-09 04:00:00 10.4 4 Sudeste 22 Norte 0 -- -- 85
2019-06-09 03:00:00 12.3 16 Norte 23 Norte 0 -- -- 79
2019-06-09 02:00:00 14.1 15 Norte 27 Noroeste 0 -- -- 71
2019-06-09 01:00:00 14.2 3 Oeste 7 Norte 0 -- -- 67
2019-06-09 00:00:00 15.4 4 Nordeste 7 Norte 0 -- -- 59
2019-06-08 23:00:00 17.3 0 Calma 22 Noroeste 0 -- -- 50
2019-06-08 22:00:00 19.8 11 Noroeste 27 Oeste 0 -- -- 37
2019-06-08 21:00:00 21.7 13 Oeste 33 Sudoeste 0 -- -- 30
2019-06-08 20:00:00 24.4 13 Sur 32 Sudoeste 0 -- -- 21
2019-06-08 19:00:00 25.1 15 Sur 31 Sudoeste 0 -- -- 21
2019-06-08 18:00:00 24.7 19 Sur 37 Sudeste 0 -- -- 28
2019-06-08 17:00:00 25 11 Sudeste 54 Sur 0 -- -- 29
2019-06-08 16:00:00 24.5 18 Sudeste 35 Sudeste 0 -- -- 29
2019-06-08 15:00:00 24 13 Sur 27 Sur 0 -- -- 28
2019-06-08 14:00:00 24.5 7 Nordeste 15 Oeste 0 -- -- 27
2019-06-08 13:00:00 21.8 7 Sur 15 Nordeste 0 -- -- 30
2019-06-08 12:00:00 20.7 8 Este 15 Este 0 -- -- 32
2019-06-08 11:00:00 19.1 8 Nordeste 22 Este 0 -- -- 38
2019-06-08 10:00:00 16.9 10 Nordeste 17 Nordeste 0 -- -- 42
2019-06-08 09:00:00 10.2 2 Sudeste 5 Sudeste 0 -- -- 70
2019-06-08 08:00:00 3.9 0 Calma 5 Sudeste 0 -- -- 84
2019-06-08 07:00:00 -1.6 3 Este 7 Este 0 -- -- 95
2019-06-08 06:00:00 -1.3 4 Este 7 Este 0 -- -- 95
2019-06-08 05:00:00 -0.7 3 Sudeste 5 Este 0 -- -- 92
2019-06-08 04:00:00 0.1 3 Este 4 Este 0 -- -- 91
2019-06-08 03:00:00 1.3 2 Este 8 Sudeste 0 -- -- 88
2019-06-08 02:00:00 2.7 3 Este 6 Nordeste 0 -- -- 83
2019-06-08 01:00:00 2.2 6 Este 8 Este 0 -- -- 86
2019-06-08 00:00:00 4.1 5 Sudeste 6 Sudeste 0 -- -- 81
2019-06-07 23:00:00 8.1 4 Noroeste 9 Oeste 0 -- -- 65
2019-06-07 22:00:00 12 5 Noroeste 12 Oeste 0 -- -- 49
2019-06-07 21:00:00 16.3 10 Oeste 22 Oeste 0 -- -- 35
2019-06-07 20:00:00 17.7 15 Oeste 27 Oeste 0 -- -- 33
2019-06-07 19:00:00 18.2 11 Oeste 28 Oeste 0 -- -- 33
2019-06-07 18:00:00 18.5 13 Oeste 35 Oeste 0 -- -- 31
2019-06-07 17:00:00 17.8 16 Oeste 32 Oeste 0 -- -- 35
2019-06-07 16:00:00 16.6 14 Noroeste 31 Oeste 0 -- -- 40
2019-06-07 15:00:00 15.9 14 Oeste 33 Oeste 0 -- -- 43
2019-06-07 14:00:00 15.3 15 Oeste 33 Oeste 0 -- -- 45
2019-06-07 13:00:00 13.9 14 Oeste 29 Sudoeste 0 -- -- 53
2019-06-07 12:00:00 12.2 12 Sudoeste 32 Oeste 0 -- -- 61
2019-06-07 11:00:00 10.6 18 Oeste 33 Oeste 0 -- -- 64
2019-06-07 10:00:00 10.4 17 Oeste 32 Oeste 0 -- -- 71
2019-06-07 09:00:00 7.9 8 Sudoeste 18 Sudoeste 0 -- -- 87
2019-06-07 08:00:00 7 6 Sudoeste 13 Sur 0 -- -- 90
2019-06-07 07:00:00 6.2 3 Sur 13 Sudoeste 0 -- -- 93
2019-06-07 06:00:00 6.5 6 Sudoeste 24 Sudoeste 0 -- -- 93
2019-06-07 05:00:00 6.5 9 Sudoeste 18 Sudoeste 0 -- -- 93
2019-06-07 04:00:00 7.5 8 Sudoeste 20 Sudoeste 0 -- -- 92
2019-06-07 03:00:00 7.7 6 Sudoeste 22 Sudoeste 0 -- -- 93
2019-06-07 02:00:00 8.1 11 Sudoeste 27 Sudoeste 0.4 -- -- 92
2019-06-07 01:00:00 8.9 11 Sudoeste 39 Oeste 2.2 -- -- 95
2019-06-07 00:00:00 11.1 24 Oeste 58 Oeste 0.4 -- -- 86
2019-06-06 23:00:00 16.9 19 Sudoeste 48 Sur 0 -- -- 45
2019-06-06 22:00:00 18.4 17 Sur 37 Sur 0 -- -- 37
2019-06-06 21:00:00 19 25 Sur 54 Sur 0 -- -- 35
2019-06-06 20:00:00 20.6 26 Sur 50 Sur 0 -- -- 33
2019-06-06 19:00:00 21 26 Sur 54 Sudoeste 0 -- -- 32
2019-06-06 18:00:00 21.9 27 Sur 49 Sur 0 -- -- 29
2019-06-06 17:00:00 22.4 24 Sur 49 Sur 0 -- -- 26
2019-06-06 16:00:00 21.8 24 Sur 46 Sur 0 -- -- 25
2019-06-06 15:00:00 20 27 Sudoeste 51 Sur 0 -- -- 28
2019-06-06 14:00:00 20 19 Sudoeste 39 Sudoeste 0 -- -- 28
2019-06-06 13:00:00 18.8 12 Sur 33 Sudoeste 0 -- -- 35
2019-06-06 12:00:00 16.2 11 Sudoeste 30 Sur 0 -- -- 41
2019-06-06 11:00:00 15.4 7 Sur 16 Sur 0 -- -- 45
2019-06-06 10:00:00 14.2 4 Sur 8 Este 0 -- -- 49
2019-06-06 09:00:00 11.5 4 Oeste 10 Oeste 0 -- -- 58
2019-06-06 08:00:00 8.9 0 Calma 4 Sudeste 0 -- -- 69
2019-06-06 07:00:00 6.2 4 Oeste 6 Sur 0 -- -- 76
2019-06-06 06:00:00 7.7 0 Calma 6 Sudoeste 0 -- -- 71
2019-06-06 05:00:00 9.5 3 Oeste 5 Oeste 0 -- -- 65
2019-06-06 04:00:00 9.2 2 Sur 6 Oeste 0 -- -- 70
2019-06-06 03:00:00 10.3 3 Sudoeste 11 Oeste 0 -- -- 60
2019-06-06 02:00:00 9.9 3 Oeste 7 Oeste 0 -- -- 60
2019-06-06 01:00:00 9.7 2 Sudoeste 12 Oeste 0 -- -- 59
2019-06-06 00:00:00 11.6 5 Oeste 17 Oeste 0 -- -- 52
2019-06-05 23:00:00 12.7 6 Oeste 18 Oeste 0 -- -- 48
2019-06-05 22:00:00 14.2 11 Oeste 27 Oeste 0 -- -- 41
2019-06-05 21:00:00 15.1 17 Oeste 33 Oeste 0 -- -- 36
2019-06-05 20:00:00 17.3 19 Oeste 37 Oeste 0 -- -- 31
2019-06-05 19:00:00 18.9 20 Oeste 37 Oeste 0 -- -- 29
2019-06-05 18:00:00 18.9 18 Oeste 34 Oeste 0 -- -- 30
2019-06-05 17:00:00 17.7 17 Oeste 33 Oeste 0 -- -- 34
2019-06-05 16:00:00 18.7 15 Oeste 30 Oeste 0 -- -- 34
2019-06-05 15:00:00 16.7 15 Oeste 36 Oeste 0 -- -- 40
2019-06-05 14:00:00 16.8 15 Oeste 37 Sudoeste 0 -- -- 41
2019-06-05 13:00:00 15.2 18 Oeste 38 Oeste 0 -- -- 46
2019-06-05 12:00:00 13.3 19 Oeste 33 Noroeste 0 -- -- 58
2019-06-05 11:00:00 12.7 19 Oeste 35 Oeste 0 -- -- 60
2019-06-05 10:00:00 11.3 17 Oeste 32 Oeste 0 -- -- 68
2019-06-05 09:00:00 9.7 18 Oeste 32 Oeste 0 -- -- 77
2019-06-05 08:00:00 8.8 18 Oeste 37 Oeste 0 -- -- 83
2019-06-05 07:00:00 8.8 8 Sudoeste 15 Oeste 0 -- -- 91
2019-06-05 06:00:00 8.9 5 Oeste 16 Sudoeste 0 -- -- 91
2019-06-05 05:00:00 9.2 6 Sudoeste 24 Oeste 0.2 -- -- 89
2019-06-05 04:00:00 10.4 15 Oeste 34 Noroeste 0 -- -- 79
2019-06-05 03:00:00 12.3 23 Oeste 37 Oeste 0 -- -- 65
2019-06-05 02:00:00 14.9 10 Oeste 15 Oeste 0 -- -- 55
2019-06-05 01:00:00 15.2 8 Oeste 15 Oeste 0 -- -- 57
2019-06-05 00:00:00 14.7 6 Oeste 14 Oeste 0 -- -- 60
2019-06-04 23:00:00 15.9 7 Oeste 19 Oeste 0 -- -- 59
2019-06-04 22:00:00 17.3 12 Oeste 26 Oeste 0 -- -- 56
2019-06-04 21:00:00 18.2 15 Oeste 36 Oeste 0 -- -- 56
2019-06-04 20:00:00 20 23 Oeste 47 Oeste 0 -- -- 52
2019-06-04 19:00:00 22.3 19 Oeste 37 Oeste 0 -- -- 43
2019-06-04 18:00:00 23.9 16 Oeste 37 Oeste 0 -- -- 36
2019-06-04 17:00:00 25.2 21 Oeste 39 Oeste 0 -- -- 33
2019-06-04 16:00:00 25.5 18 Oeste 39 Sudoeste 0 -- -- 33
2019-06-04 15:00:00 23.4 22 Oeste 37 Oeste 0 -- -- 35
2019-06-04 14:00:00 23.3 15 Oeste 36 Sudoeste 0 -- -- 40
2019-06-04 13:00:00 21.2 18 Sudoeste 34 Oeste 0 -- -- 45
2019-06-04 12:00:00 19.5 14 Sudoeste 28 Sudoeste 0 -- -- 54
2019-06-04 11:00:00 17.6 14 Sudoeste 30 Oeste 0 -- -- 62
2019-06-04 10:00:00 16.6 16 Sudoeste 27 Sudoeste 0 -- -- 66
2019-06-04 09:00:00 15 12 Sudoeste 22 Sudoeste 0 -- -- 77
2019-06-04 08:00:00 10.1 2 Sur 4 Sudeste 0 -- -- 79
2019-06-04 07:00:00 5.5 0 Calma 6 Sudeste 0 -- -- 86
2019-06-04 06:00:00 6.2 0 Calma 4 Este 0 -- -- 86
2019-06-04 05:00:00 6.6 0 Calma 5 Sudeste 0 -- -- 81
2019-06-04 04:00:00 7.7 3 Nordeste 8 Este 0 -- -- 78
2019-06-04 03:00:00 9.4 2 Sudeste 12 Este 0 -- -- 67
2019-06-04 02:00:00 9.5 0 Calma 3 Oeste 0 -- -- 68
2019-06-04 01:00:00 10.8 0 Calma 5 Oeste 0 -- -- 57
2019-06-04 00:00:00 12.4 2 Oeste 3 Oeste 0 -- -- 56
2019-06-03 23:00:00 15.5 0 Calma 9 Sudoeste 0 -- -- 40
2019-06-03 22:00:00 24.1 8 Sudoeste 29 Sudoeste 0 -- -- 21
2019-06-03 21:00:00 27.3 14 Sudoeste 37 Sudoeste 0 -- -- 20
2019-06-03 20:00:00 28.9 23 Sudoeste 45 Sudoeste 0 -- -- 17
2019-06-03 19:00:00 30.3 23 Sudoeste 50 Sur 0 -- -- 15
2019-06-03 18:00:00 31 19 Oeste 39 Oeste 0 -- -- 16
2019-06-03 17:00:00 30.8 19 Oeste 37 Oeste 0 -- -- 16
2019-06-03 16:00:00 30.6 19 Sudoeste 40 Sudoeste 0 -- -- 16
2019-06-03 15:00:00 28.7 16 Oeste 30 Oeste 0 -- -- 17
2019-06-03 14:00:00 28.5 5 Sudoeste 22 Oeste 0 -- -- 23
2019-06-03 13:00:00 26.6 10 Oeste 20 Oeste 0 -- -- 26
2019-06-03 12:00:00 25.5 9 Sudoeste 16 Sudoeste 0 -- -- 31
2019-06-03 11:00:00 23.5 8 Oeste 15 Oeste 0 -- -- 35
2019-06-03 10:00:00 21.7 4 Sudoeste 9 Sur 0 -- -- 41
2019-06-03 09:00:00 14.7 3 Este 5 Este 0 -- -- 67
2019-06-03 08:00:00 10.2 0 Calma 4 Este 0 -- -- 79
2019-06-03 07:00:00 9.2 0 Calma 4 Este 0 -- -- 76
2019-06-03 06:00:00 8.6 2 Este 6 Este 0 -- -- 78
2019-06-03 05:00:00 9.2 2 Sudeste 5 Este 0 -- -- 77
2019-06-03 04:00:00 9.2 4 Este 6 Este 0 -- -- 78
2019-06-03 03:00:00 9.8 3 Este 5 Este 0 -- -- 73
2019-06-03 02:00:00 10.4 3 Este 8 Sudeste 0 -- -- 70
2019-06-03 01:00:00 12.5 0 Calma 4 Sudoeste 0 -- -- 64
2019-06-03 00:00:00 13.8 0 Calma 5 Nordeste 0 -- -- 57
2019-06-02 23:00:00 16.5 3 Sudeste 8 Noroeste 0 -- -- 54
2019-06-02 22:00:00 23 5 Oeste 13 Noroeste 0 -- -- 31
2019-06-02 21:00:00 26.8 8 Noroeste 26 Oeste 0 -- -- 25
2019-06-02 20:00:00 28.8 19 Noroeste 36 Oeste 0 -- -- 23
2019-06-02 19:00:00 30.4 20 Noroeste 35 Oeste 0 -- -- 21
2019-06-02 18:00:00 31.1 20 Oeste 34 Oeste 0 -- -- 20
2019-06-02 17:00:00 31.2 19 Oeste 36 Oeste 0 -- -- 21
2019-06-02 16:00:00 32 13 Oeste 36 Oeste 0 -- -- 22
2019-06-02 15:00:00 31 12 Sudoeste 31 Sudoeste 0 -- -- 22
2019-06-02 14:00:00 31.2 15 Oeste 31 Sudoeste 0 -- -- 22
2019-06-02 13:00:00 29.9 9 Sudoeste 20 Sudoeste 0 -- -- 26
2019-06-02 12:00:00 27.7 9 Oeste 17 Sudoeste 0 -- -- 29
2019-06-02 11:00:00 25.6 11 Oeste 20 Sudoeste 0 -- -- 34
2019-06-02 10:00:00 23.2 8 Oeste 14 Oeste 0 -- -- 38
2019-06-02 09:00:00 20.2 2 Sudoeste 4 Sudoeste 0 -- -- 45
2019-06-02 08:00:00 13 0 Calma 4 Este 0 -- -- 62
2019-06-02 07:00:00 7.1 0 Calma 9 Este 0 -- -- 79
2019-06-02 06:00:00 6.5 5 Este 9 Este 0 -- -- 81
2019-06-02 05:00:00 8.4 2 Norte 5 Nordeste 0 -- -- 74
2019-06-02 04:00:00 8 3 Este 4 Este 0 -- -- 78
2019-06-02 03:00:00 9.4 2 Este 10 Sur 0 -- -- 74
2019-06-02 02:00:00 10.9 5 Sudeste 13 Oeste 0 -- -- 66
2019-06-02 01:00:00 11.5 6 Nordeste 14 Sudeste 0 -- -- 60
2019-06-02 00:00:00 13.3 3 Sudeste 10 Sudoeste 0 -- -- 56
2019-06-01 23:00:00 15.7 6 Sudeste 9 Oeste 0 -- -- 62
2019-06-01 22:00:00 24 6 Oeste 15 Noroeste 0 -- -- 27
2019-06-01 21:00:00 28.9 6 Oeste 17 Oeste 0 -- -- 24
2019-06-01 20:00:00 31.8 10 Oeste 21 Oeste 0 -- -- 17
2019-06-01 19:00:00 33.3 6 Sudoeste 24 Noroeste 0 -- -- 16
2019-06-01 18:00:00 33.7 5 Sur 22 Sudoeste 0 -- -- 16
2019-06-01 17:00:00 32.7 11 Sudoeste 24 Oeste 0 -- -- 17
2019-06-01 16:00:00 32.2 10 Oeste 20 Oeste 0 -- -- 20
2019-06-01 15:00:00 31.2 11 Nordeste 20 Noroeste 0 -- -- 19
2019-06-01 14:00:00 31.2 10 Este 16 Este 0 -- -- 22
2019-06-01 13:00:00 30.3 6 Sur 16 Oeste 0 -- -- 20
2019-06-01 12:00:00 28.5 6 Oeste 12 Oeste 0 -- -- 24
2019-06-01 11:00:00 26.2 4 Sur 8 Sur 0 -- -- 29
2019-06-01 10:00:00 23.1 3 Este 8 Este 0 -- -- 35
2019-06-01 09:00:00 17.2 3 Sudeste 6 Este 0 -- -- 52
2019-06-01 08:00:00 10.2 3 Este 5 Este 0 -- -- 73
2019-06-01 07:00:00 4.4 5 Este 6 Este 0 -- -- 86
2019-06-01 06:00:00 5.1 5 Este 9 Este 0 -- -- 86
2019-06-01 05:00:00 5.5 6 Este 9 Este 0 -- -- 84
2019-06-01 04:00:00 8.1 6 Sudeste 12 Sur 0 -- -- 75
2019-06-01 03:00:00 9.1 7 Este 10 Nordeste 0 -- -- 73
2019-06-01 02:00:00 10.6 5 Este 13 Este 0 -- -- 66
2019-06-01 01:00:00 14.1 8 Este 13 Este 0 -- -- 54
2019-06-01 00:00:00 16.3 6 Este 19 Norte 0 -- -- 44
2019-05-31 23:00:00 19.6 16 Norte 20 Norte 0 -- -- 36
2019-05-31 22:00:00 19.8 15 Norte 16 Norte 0 -- -- 35
2019-05-31 21:00:00 27.5 9 Norte 11 Norte 0 -- -- 24
2019-05-31 20:00:00 31 7 Noroeste 15 Noroeste 0 -- -- 15
2019-05-31 19:00:00 31.8 6 Noroeste 17 Noroeste 0 -- -- 14
2019-05-31 18:00:00 32.3 12 Nordeste 21 Norte 0 -- -- 18
2019-05-31 17:00:00 32.3 4 Norte 17 Este 0 -- -- 17
2019-05-31 16:00:00 31 6 Sudeste 18 Oeste 0 -- -- 19
2019-05-31 15:00:00 29.9 10 Norte 17 Norte 0 -- -- 21
2019-05-31 14:00:00 28.5 8 Oeste 16 Noroeste 0 -- -- 22
2019-05-31 13:00:00 26.9 8 Sur 17 Sur 0 -- -- 26
2019-05-31 12:00:00 26.5 5 Sudeste 13 Este 0 -- -- 29
2019-05-31 11:00:00 24.2 3 Este 8 Sur 0 -- -- 33
2019-05-31 10:00:00 20.3 4 Sur 8 Este 0 -- -- 43
2019-05-31 09:00:00 15.8 5 Sudeste 8 Sudeste 0 -- -- 57
2019-05-31 08:00:00 9.7 6 Este 12 Este 0 -- -- 72
2019-05-31 07:00:00 6.5 6 Este 11 Este 0 -- -- 83
2019-05-31 06:00:00 5.7 4 Norte 12 Este 0 -- -- 82
2019-05-31 05:00:00 12.8 12 Nordeste 20 Este 0 -- -- 57
2019-05-31 04:00:00 13.5 12 Nordeste 18 Nordeste 0 -- -- 54
2019-05-31 03:00:00 13.2 6 Este 24 Norte 0 -- -- 54
2019-05-31 02:00:00 14.7 14 Nordeste 18 Nordeste 0 -- -- 49
2019-05-31 01:00:00 14.1 13 Nordeste 19 Nordeste 0 -- -- 52
2019-05-31 00:00:00 17.2 15 Nordeste 31 Norte 0 -- -- 45
2019-05-30 23:00:00 19.5 22 Nordeste 32 Nordeste 0 -- -- 40
2019-05-30 22:00:00 20.2 15 Norte 29 Norte 0 -- -- 37
2019-05-30 21:00:00 24.9 19 Norte 36 Norte 0 -- -- 30
2019-05-30 20:00:00 27.4 22 Norte 32 Norte 0 -- -- 25
2019-05-30 19:00:00 29.1 17 Norte 31 Norte 0 -- -- 22
2019-05-30 18:00:00 29.7 10 Norte 29 Norte 0 -- -- 23
2019-05-30 17:00:00 29.2 13 Nordeste 26 Norte 0 -- -- 23
2019-05-30 16:00:00 28.8 14 Nordeste 26 Nordeste 0 -- -- 23
2019-05-30 15:00:00 27.4 15 Este 32 Nordeste 0 -- -- 21
2019-05-30 14:00:00 26.9 12 Norte 27 Norte 0 -- -- 24
2019-05-30 13:00:00 25.6 10 Nordeste 24 Nordeste 0 -- -- 28
2019-05-30 12:00:00 23.7 7 Nordeste 18 Nordeste 0 -- -- 36
2019-05-30 11:00:00 21.2 7 Este 16 Este 0 -- -- 41
2019-05-30 10:00:00 17.6 4 Sudeste 10 Este 0 -- -- 54
2019-05-30 09:00:00 12.2 5 Este 7 Este 0 -- -- 67
2019-05-30 08:00:00 8.2 0 Calma 5 Sudeste 0 -- -- 82
2019-05-30 07:00:00 2.8 2 Nordeste 10 Sur 0 -- -- 93
2019-05-30 06:00:00 5.4 7 Este 18 Nordeste 0 -- -- 87
2019-05-30 05:00:00 5.1 8 Nordeste 15 Nordeste 0 -- -- 89
2019-05-30 04:00:00 5.4 7 Norte 10 Norte 0 -- -- 90
2019-05-30 03:00:00 7.7 0 Calma 10 Nordeste 0 -- -- 80
2019-05-30 02:00:00 10 6 Este 23 Norte 0 -- -- 74
2019-05-30 01:00:00 11.1 19 Norte 24 Norte 0 -- -- 71
2019-05-30 00:00:00 9.3 6 Sudeste 15 Norte 0 -- -- 79
2019-05-29 23:00:00 10.7 9 Norte 14 Nordeste 0 -- -- 73
2019-05-29 22:00:00 15 8 Nordeste 29 Nordeste 0 -- -- 57
2019-05-29 21:00:00 18.9 19 Nordeste 33 Nordeste 0 -- -- 44
2019-05-29 20:00:00 20.7 23 Norte 36 Nordeste 0 -- -- 41
2019-05-29 19:00:00 21.4 22 Nordeste 39 Nordeste 0 -- -- 41
2019-05-29 18:00:00 21.9 25 Norte 39 Norte 0 -- -- 38
2019-05-29 17:00:00 22.2 22 Nordeste 38 Nordeste 0 -- -- 40
2019-05-29 16:00:00 21.9 18 Nordeste 37 Nordeste 0 -- -- 42
2019-05-29 15:00:00 20.2 22 Norte 35 Norte 0 -- -- 45
2019-05-29 14:00:00 19.1 17 Norte 34 Norte 0 -- -- 47
2019-05-29 13:00:00 17.7 20 Norte 36 Nordeste 0 -- -- 49
2019-05-29 12:00:00 17.2 21 Norte 35 Norte 0 -- -- 51
2019-05-29 11:00:00 15.7 21 Nordeste 31 Norte 0 -- -- 54
2019-05-29 10:00:00 14.1 14 Nordeste 25 Norte 0 -- -- 57
2019-05-29 09:00:00 10.9 6 Este 11 Este 0 -- -- 69
2019-05-29 08:00:00 7.2 2 Este 7 Este 0 -- -- 79
2019-05-29 07:00:00 2.8 3 Este 12 Nordeste 0 -- -- 91
2019-05-29 06:00:00 4.2 8 Nordeste 19 Nordeste 0 -- -- 87
2019-05-29 05:00:00 4.5 9 Nordeste 15 Nordeste 0 -- -- 86
2019-05-29 04:00:00 3.6 4 Este 9 Nordeste 0 -- -- 88
2019-05-29 03:00:00 4.5 4 Nordeste 10 Nordeste 0 -- -- 86
2019-05-29 02:00:00 6.7 8 Nordeste 27 Nordeste 0 -- -- 75
2019-05-29 01:00:00 8.6 18 Nordeste 31 Nordeste 0 -- -- 67
2019-05-29 00:00:00 9.7 19 Nordeste 33 Nordeste 0 -- -- 63
2019-05-28 23:00:00 11.1 19 Norte 33 Nordeste 0 -- -- 57
2019-05-28 22:00:00 13.1 24 Norte 36 Nordeste 0 -- -- 47
2019-05-28 21:00:00 16.1 23 Nordeste 36 Nordeste 0 -- -- 46
2019-05-28 20:00:00 18.6 22 Nordeste 34 Nordeste 0 -- -- 42
2019-05-28 19:00:00 20.8 17 Nordeste 32 Nordeste 0 -- -- 39
2019-05-28 18:00:00 20.7 19 Norte 35 Nordeste 0 -- -- 37
2019-05-28 17:00:00 21 18 Norte 36 Norte 0 -- -- 37
2019-05-28 16:00:00 20 21 Norte 45 Nordeste 0 -- -- 38
2019-05-28 15:00:00 19.6 16 Norte 30 Norte 0 -- -- 37
2019-05-28 14:00:00 19.3 13 Norte 33 Norte 0 -- -- 39
2019-05-28 13:00:00 17.4 15 Norte 30 Norte 0 -- -- 41
2019-05-28 12:00:00 16.3 14 Nordeste 32 Nordeste 0 -- -- 45
2019-05-28 11:00:00 15.4 19 Nordeste 33 Nordeste 0 -- -- 48
2019-05-28 10:00:00 13.7 19 Nordeste 34 Nordeste 0 -- -- 52
2019-05-28 09:00:00 11.7 19 Nordeste 33 Nordeste 0 -- -- 58
2019-05-28 08:00:00 9.4 11 Nordeste 20 Nordeste 0 -- -- 69
2019-05-28 07:00:00 6.2 9 Este 18 Este 0 -- -- 85
2019-05-28 06:00:00 7.1 4 Este 17 Nordeste 0 -- -- 84
2019-05-28 05:00:00 8.1 9 Nordeste 32 Nordeste 0 -- -- 80
2019-05-28 04:00:00 8.8 19 Norte 38 Norte 0 -- -- 77
2019-05-28 03:00:00 9.5 18 Norte 33 Norte 0 -- -- 75
2019-05-28 02:00:00 10.5 25 Norte 42 Norte 0 -- -- 75
2019-05-28 01:00:00 11.5 25 Norte 36 Nordeste 0 -- -- 71
2019-05-28 00:00:00 12.7 21 Nordeste 35 Norte 0 -- -- 70
2019-05-27 23:00:00 14 24 Norte 37 Nordeste 0 -- -- 67
2019-05-27 22:00:00 16.7 21 Nordeste 32 Nordeste 0 -- -- 58
2019-05-27 21:00:00 20.3 17 Nordeste 27 Nordeste 0 -- -- 49
2019-05-27 20:00:00 24 13 Nordeste 24 Norte 0 -- -- 40
2019-05-27 19:00:00 24.9 10 Norte 22 Noroeste 0 -- -- 38
2019-05-27 18:00:00 24.3 10 Norte 26 Noroeste 0 -- -- 38
2019-05-27 17:00:00 25.4 10 Nordeste 27 Norte 0 -- -- 37
2019-05-27 16:00:00 24.6 16 Norte 27 Norte 0 -- -- 39
2019-05-27 15:00:00 22.7 13 Norte 25 Noroeste 0 -- -- 41
2019-05-27 14:00:00 22.6 10 Norte 24 Norte 0 -- -- 42
2019-05-27 13:00:00 22.2 9 Noroeste 22 Norte 0 -- -- 41
2019-05-27 12:00:00 20.9 10 Norte 21 Nordeste 0 -- -- 46
2019-05-27 11:00:00 20.1 13 Nordeste 22 Nordeste 0 -- -- 50
2019-05-27 10:00:00 17.9 12 Norte 19 Norte 0 -- -- 54
2019-05-27 09:00:00 13.9 3 Sur 5 Sur 0 -- -- 66
2019-05-27 08:00:00 7.4 4 Este 6 Este 0 -- -- 92
2019-05-27 07:00:00 4.7 0 Calma 4 Sudeste 0 -- -- 96
2019-05-27 06:00:00 6 0 Calma 4 Nordeste 0 -- -- 95
2019-05-27 05:00:00 5.9 3 Sudeste 8 Este 0 -- -- 92
2019-05-27 04:00:00 7.2 6 Este 10 Este 0 -- -- 88
2019-05-27 03:00:00 8.7 6 Este 14 Nordeste 0 -- -- 85
2019-05-27 02:00:00 10.7 8 Nordeste 13 Nordeste 0 -- -- 81
2019-05-27 01:00:00 9 0 Calma 9 Este 0 -- -- 87
2019-05-27 00:00:00 10.5 3 Este 11 Sudeste 0 -- -- 82
2019-05-26 23:00:00 11.9 9 Nordeste 12 Nordeste 0 -- -- 77
2019-05-26 22:00:00 14.7 0 Calma 19 Nordeste 0 -- -- 66
2019-05-26 21:00:00 20.4 13 Nordeste 25 Norte 0 -- -- 49
2019-05-26 20:00:00 22.9 17 Nordeste 27 Nordeste 0 -- -- 43
2019-05-26 19:00:00 23.6 19 Nordeste 33 Norte 0 -- -- 40
2019-05-26 18:00:00 23.7 17 Norte 33 Norte 0 -- -- 41
2019-05-26 17:00:00 23 23 Nordeste 35 Nordeste 0 -- -- 41
2019-05-26 16:00:00 22.1 20 Norte 40 Norte 0 -- -- 43
2019-05-26 15:00:00 21.4 17 Norte 36 Norte 0 -- -- 45
2019-05-26 14:00:00 20.6 15 Norte 32 Norte 0 -- -- 47
2019-05-26 13:00:00 18.6 17 Norte 26 Norte 0 -- -- 53
2019-05-26 12:00:00 16.8 15 Norte 31 Norte 0 -- -- 58
2019-05-26 11:00:00 15.6 14 Nordeste 30 Norte 0 -- -- 59
2019-05-26 10:00:00 14.9 17 Norte 32 Nordeste 0 -- -- 60
2019-05-26 09:00:00 12.4 22 Nordeste 31 Nordeste 0 -- -- 68
2019-05-26 08:00:00 9.9 11 Nordeste 18 Norte 0 -- -- 78
2019-05-26 07:00:00 4.4 4 Este 13 Nordeste 0 -- -- 89
2019-05-26 06:00:00 5.3 6 Este 19 Norte 0 -- -- 89
2019-05-26 05:00:00 7.6 16 Norte 32 Norte 0 -- -- 82
2019-05-26 04:00:00 8.1 22 Norte 36 Norte 0 -- -- 81
2019-05-26 03:00:00 7.9 14 Nordeste 26 Nordeste 0 -- -- 84
2019-05-26 02:00:00 8.9 15 Nordeste 30 Nordeste 0 -- -- 77
2019-05-26 01:00:00 9.8 20 Norte 29 Norte 0 -- -- 73
2019-05-26 00:00:00 9.6 10 Norte 22 Norte 0 -- -- 74
2019-05-25 23:00:00 10.9 14 Norte 21 Norte 0 -- -- 69
2019-05-25 22:00:00 12.1 15 Norte 23 Nordeste 0 -- -- 66
2019-05-25 21:00:00 16.8 11 Norte 27 Norte 0 -- -- 50
2019-05-25 20:00:00 18.8 18 Norte 34 Norte 0 -- -- 42
2019-05-25 19:00:00 19.1 27 Norte 39 Norte 0 -- -- 42
2019-05-25 18:00:00 19.7 25 Norte 43 Noroeste 0 -- -- 42
2019-05-25 17:00:00 20.3 22 Norte 38 Norte 0 -- -- 41
2019-05-25 16:00:00 19.4 17 Norte 32 Nordeste 0 -- -- 43
2019-05-25 15:00:00 18.9 18 Norte 37 Nordeste 0 -- -- 47
2019-05-25 14:00:00 17.9 21 Norte 41 Norte 0 -- -- 49
2019-05-25 13:00:00 17 19 Norte 35 Norte 0 -- -- 53
2019-05-25 12:00:00 14.4 21 Norte 35 Nordeste 0 -- -- 59
2019-05-25 11:00:00 12.4 20 Norte 37 Norte 0 -- -- 64
2019-05-25 10:00:00 11.8 19 Norte 32 Norte 0 -- -- 70
2019-05-25 09:00:00 12.4 18 Norte 30 Norte 0 -- -- 70
2019-05-25 08:00:00 9.4 4 Noroeste 10 Noroeste 0 -- -- 81
2019-05-25 07:00:00 5.8 5 Norte 11 Norte 0 -- -- 94
2019-05-25 06:00:00 4.5 2 Norte 14 Norte 0 -- -- 94
2019-05-25 05:00:00 6.6 10 Nordeste 17 Norte 0 -- -- 90
2019-05-25 04:00:00 9 16 Norte 22 Norte 0 -- -- 83
2019-05-25 03:00:00 9.3 9 Norte 20 Nordeste 0 -- -- 84
2019-05-25 02:00:00 9 17 Norte 28 Norte 0 -- -- 83
2019-05-25 01:00:00 9.1 12 Norte 26 Norte 0 -- -- 83
2019-05-25 00:00:00 9 9 Noroeste 18 Norte 0 -- -- 83
2019-05-24 23:00:00 9.6 11 Norte 25 Nordeste 0 -- -- 79
2019-05-24 22:00:00 11.3 17 Nordeste 32 Nordeste 0 -- -- 67
2019-05-24 21:00:00 14.7 22 Nordeste 37 Nordeste 0 -- -- 54
2019-05-24 20:00:00 17.4 23 Norte 37 Norte 0 -- -- 43
2019-05-24 19:00:00 18 23 Norte 43 Nordeste 0 -- -- 44
2019-05-24 18:00:00 19 26 Norte 46 Norte 0 -- -- 42
2019-05-24 17:00:00 19.2 26 Nordeste 44 Nordeste 0 -- -- 43
2019-05-24 16:00:00 18.7 26 Norte 45 Norte 0 -- -- 41
2019-05-24 15:00:00 18.7 22 Norte 37 Norte 0 -- -- 44
2019-05-24 14:00:00 18.7 21 Norte 35 Norte 0 -- -- 44
2019-05-24 13:00:00 18.3 24 Norte 37 Norte 0 -- -- 48
2019-05-24 12:00:00 17.9 18 Nordeste 31 Nordeste 0 -- -- 53
2019-05-24 11:00:00 16.4 20 Norte 37 Norte 0 -- -- 59
2019-05-24 10:00:00 14.4 28 Norte 44 Norte 0 -- -- 66
2019-05-24 09:00:00 12.7 27 Norte 38 Norte 0 -- -- 73
2019-05-24 08:00:00 11.1 24 Norte 33 Norte 0 -- -- 81
2019-05-24 07:00:00 11 7 Norte 17 Norte 0 -- -- 82
2019-05-24 06:00:00 10.3 2 Sur 9 Norte 0 -- -- 86
2019-05-24 05:00:00 10.2 2 Sudeste 12 Norte 0 -- -- 87
2019-05-24 04:00:00 10.5 8 Norte 36 Norte 0 -- -- 86
2019-05-24 03:00:00 11.2 26 Norte 41 Noroeste 0 -- -- 83
2019-05-24 02:00:00 11.8 27 Norte 39 Norte 0 -- -- 85
2019-05-24 01:00:00 12.4 24 Norte 35 Norte 0 -- -- 83
2019-05-24 00:00:00 14.8 13 Norte 18 Noroeste 0 -- -- 75
2019-05-23 23:00:00 18.3 10 Oeste 26 Noroeste 0 -- -- 47
2019-05-23 22:00:00 19.9 13 Oeste 26 Oeste 0 -- -- 38
2019-05-23 21:00:00 22.5 14 Oeste 28 Noroeste 0 -- -- 35
2019-05-23 20:00:00 23.5 14 Oeste 24 Oeste 0 -- -- 38
2019-05-23 19:00:00 24 13 Oeste 28 Oeste 0 -- -- 37
2019-05-23 18:00:00 24.8 12 Oeste 31 Oeste 0 -- -- 32
2019-05-23 17:00:00 26.8 15 Sudoeste 36 Oeste 0 -- -- 26
2019-05-23 16:00:00 26.5 12 Oeste 28 Sur 0 -- -- 28
2019-05-23 15:00:00 24.8 13 Oeste 30 Oeste 0 -- -- 30
2019-05-23 14:00:00 24.6 10 Oeste 22 Noroeste 0 -- -- 40
2019-05-23 13:00:00 22.5 5 Oeste 15 Sudoeste 0 -- -- 52
2019-05-23 12:00:00 22 5 Sudoeste 17 Sur 0 -- -- 51
2019-05-23 11:00:00 18.6 6 Sudoeste 13 Sudoeste 0 -- -- 61
2019-05-23 10:00:00 16.6 6 Oeste 11 Sudoeste 0 -- -- 68
2019-05-23 09:00:00 14.9 0 Calma 4 Sur 0 -- -- 69
2019-05-23 08:00:00 8.2 0 Calma 3 Sur 0 -- -- 86
2019-05-23 07:00:00 6 0 Calma 5 Sudeste 0 -- -- 87
2019-05-23 06:00:00 5.6 4 Este 5 Este 0 -- -- 89
2019-05-23 05:00:00 6.6 4 Sudeste 6 Este 0 -- -- 87
2019-05-23 04:00:00 7.8 3 Noroeste 8 Este 0 -- -- 82
2019-05-23 03:00:00 6.5 0 Calma 9 Sudoeste 0 -- -- 83
2019-05-23 02:00:00 8.1 4 Nordeste 8 Este 0 -- -- 77
2019-05-23 01:00:00 9.3 9 Este 13 Este 0 -- -- 71
2019-05-23 00:00:00 11 6 Nordeste 15 Nordeste 0 -- -- 63
2019-05-22 23:00:00 13.8 3 Este 15 Norte 0 -- -- 54
2019-05-22 22:00:00 17.6 13 Norte 15 Norte 0 -- -- 42
2019-05-22 21:00:00 23.4 8 Norte 18 Noroeste 0 -- -- 35
2019-05-22 20:00:00 25.8 9 Noroeste 20 Oeste 0 -- -- 27
2019-05-22 19:00:00 26.3 6 Noroeste 21 Noroeste 0 -- -- 26
2019-05-22 18:00:00 25.9 11 Oeste 24 Oeste 0 -- -- 25
2019-05-22 17:00:00 26.5 10 Oeste 23 Oeste 0 -- -- 25
2019-05-22 16:00:00 26 6 Norte 23 Oeste 0 -- -- 27
2019-05-22 15:00:00 25.4 5 Norte 28 Oeste 0 -- -- 30
2019-05-22 14:00:00 24.3 13 Oeste 23 Oeste 0 -- -- 28
2019-05-22 13:00:00 23.5 6 Este 18 Este 0 -- -- 32
2019-05-22 12:00:00 23.9 4 Este 12 Este 0 -- -- 35
2019-05-22 11:00:00 20.9 4 Sudeste 8 Sudeste 0 -- -- 39
2019-05-22 10:00:00 18.6 0 Calma 9 Este 0 -- -- 47
2019-05-22 09:00:00 13.2 5 Este 9 Nordeste 0 -- -- 65
2019-05-22 08:00:00 7.6 0 Calma 8 Nordeste 0 -- -- 85
2019-05-22 07:00:00 2.5 3 Este 8 Nordeste 0 -- -- 92
2019-05-22 06:00:00 2.8 5 Sudeste 15 Nordeste 0 -- -- 90
2019-05-22 05:00:00 4.8 4 Nordeste 8 Este 0 -- -- 85
2019-05-22 04:00:00 7.2 6 Este 17 Nordeste 0 -- -- 77
2019-05-22 03:00:00 8.4 7 Nordeste 14 Nordeste 0 -- -- 77
2019-05-22 02:00:00 9 13 Nordeste 20 Norte 0 -- -- 74
2019-05-22 01:00:00 9.1 9 Este 19 Este 0 -- -- 72
2019-05-22 00:00:00 10.7 5 Nordeste 23 Nordeste 0 -- -- 64
2019-05-21 23:00:00 12.8 18 Norte 22 Norte 0 -- -- 53
2019-05-21 22:00:00 14.4 16 Norte 23 Norte 0 -- -- 49
2019-05-21 21:00:00 18.9 13 Norte 19 Norte 0 -- -- 39
2019-05-21 20:00:00 21.7 8 Norte 16 Nordeste 0 -- -- 36
2019-05-21 19:00:00 22.7 9 Nordeste 35 Noroeste 0 -- -- 32
2019-05-21 18:00:00 24.4 6 Oeste 16 Noroeste 0 -- -- 30
2019-05-21 17:00:00 22.1 8 Noroeste 14 Oeste 0 -- -- 32
2019-05-21 16:00:00 21.5 9 Norte 16 Noroeste 0 -- -- 32
2019-05-21 15:00:00 20.5 4 Sur 21 Este 0 -- -- 32
2019-05-21 14:00:00 21 8 Sudeste 19 Este 0 -- -- 35
2019-05-21 13:00:00 19.7 4 Sudoeste 12 Sudeste 0 -- -- 37
2019-05-21 12:00:00 19.5 4 Norte 9 Norte 0 -- -- 42
2019-05-21 11:00:00 16.1 4 Este 10 Nordeste 0 -- -- 51
2019-05-21 10:00:00 11.1 0 Calma 4 Sur 0 -- -- 62
2019-05-21 09:00:00 8.6 2 Sudeste 4 Este 0 -- -- 79
2019-05-21 08:00:00 6.4 0 Calma 4 Nordeste 0 -- -- 89
2019-05-21 07:00:00 5.2 0 Calma 4 Sudeste 0 -- -- 89
2019-05-21 06:00:00 4.8 5 Este 9 Este 0 -- -- 91
2019-05-21 05:00:00 3.3 2 Este 3 Sudeste 0 -- -- 94
2019-05-21 04:00:00 2.3 0 Calma 6 Nordeste 0 -- -- 92
2019-05-21 03:00:00 3.2 3 Sudeste 10 Este 0 -- -- 89
2019-05-21 02:00:00 6.2 5 Oeste 12 Sudoeste 0 -- -- 79
2019-05-21 01:00:00 8.5 0 Calma 10 Norte 0 -- -- 72
2019-05-21 00:00:00 11.2 10 Norte 18 Norte 0 -- -- 60